createdAt,value
2024-01-07T00:01:23.892Z,0.70
2024-01-07T00:04:47.188Z,0.60
2024-01-07T00:08:09.570Z,0.60
2024-01-07T00:11:31.195Z,0.60
2024-01-07T00:14:52.605Z,0.50
2024-01-07T00:18:14.125Z,0.50
2024-01-07T00:21:37.550Z,0.40
2024-01-07T00:24:59.613Z,0.40
2024-01-07T00:28:20.987Z,0.30
2024-01-07T00:31:43.015Z,0.20
2024-01-07T00:35:04.968Z,0.10
2024-01-07T00:38:27.978Z,0.10
2024-01-07T00:41:49.366Z,0.00
2024-01-07T00:45:11.600Z,0.00
2024-01-07T00:48:33.109Z,0.00
2024-01-07T00:51:54.825Z,0.00
2024-01-07T00:55:17.555Z,0.00
2024-01-07T00:58:39.293Z,0.10
2024-01-07T01:02:00.933Z,0.10
2024-01-07T01:05:22.275Z,0.00
2024-01-07T01:08:43.707Z,0.00
2024-01-07T01:12:07.000Z,0.00
2024-01-07T01:15:28.535Z,0.00
2024-01-07T01:18:50.139Z,0.00
2024-01-07T01:22:12.066Z,-0.10
2024-01-07T01:25:33.387Z,-0.20
2024-01-07T01:28:56.448Z,-0.20
2024-01-07T01:32:18.064Z,-0.20
2024-01-07T01:35:39.741Z,-0.10
2024-01-07T01:39:01.155Z,-0.10
2024-01-07T01:42:22.659Z,-0.20
2024-01-07T01:45:45.853Z,-0.10
2024-01-07T01:49:08.577Z,0.00
2024-01-07T01:52:30.560Z,-0.10
2024-01-07T01:55:52.077Z,-0.20
2024-01-07T01:59:14.462Z,-0.20
2024-01-07T02:02:37.802Z,-0.10
2024-01-07T02:06:00.127Z,0.00
2024-01-07T02:09:21.672Z,0.00
2024-01-07T02:12:43.129Z,0.00
2024-01-07T02:16:05.241Z,0.10
2024-01-07T02:19:28.400Z,0.20
2024-01-07T02:22:50.047Z,0.20
2024-01-07T02:26:12.942Z,0.30
2024-01-07T02:29:34.267Z,0.30
2024-01-07T02:32:55.886Z,0.30
2024-01-07T02:36:18.076Z,0.40
2024-01-07T02:39:39.944Z,0.50
2024-01-07T02:43:02.744Z,0.50
2024-01-07T02:46:26.359Z,0.60
2024-01-07T02:49:48.252Z,0.60
2024-01-07T02:53:11.968Z,0.50
2024-01-07T02:56:33.641Z,0.60
2024-01-07T02:59:56.402Z,0.70
2024-01-07T03:03:18.374Z,0.70
2024-01-07T03:06:39.834Z,0.80
2024-01-07T03:10:01.402Z,0.80
2024-01-07T03:13:22.908Z,0.90
2024-01-07T03:16:45.536Z,0.90
2024-01-07T03:20:08.291Z,0.90
2024-01-07T03:23:29.589Z,0.90
2024-01-07T03:26:51.175Z,0.90
2024-01-07T03:30:13.494Z,1.00
2024-01-07T03:33:36.601Z,1.00
2024-01-07T03:36:58.660Z,1.00
2024-01-07T03:40:20.610Z,1.00
2024-01-07T03:43:41.988Z,1.00
2024-01-07T03:47:03.417Z,1.10
2024-01-07T03:50:26.380Z,1.00
2024-01-07T03:53:47.929Z,1.00
2024-01-07T03:57:09.654Z,1.10
2024-01-07T04:00:31.019Z,1.10
2024-01-07T04:03:52.797Z,1.20
2024-01-07T04:07:15.566Z,1.30
2024-01-07T04:10:36.817Z,1.20
2024-01-07T04:13:58.227Z,1.20
2024-01-07T04:17:19.695Z,1.20
2024-01-07T04:20:41.304Z,1.20
2024-01-07T04:24:04.319Z,1.30
2024-01-07T04:27:26.298Z,1.40
2024-01-07T04:30:50.013Z,1.40
2024-01-07T04:34:11.669Z,1.40
2024-01-07T04:37:33.137Z,1.50
2024-01-07T04:40:56.213Z,1.60
2024-01-07T04:44:17.924Z,1.50
2024-01-07T04:47:39.189Z,1.40
2024-01-07T04:51:00.603Z,1.40
2024-01-07T04:54:21.930Z,1.50
2024-01-07T04:57:44.661Z,1.50
2024-01-07T05:01:06.294Z,1.40
2024-01-07T05:04:27.780Z,1.50
2024-01-07T05:07:49.364Z,1.50
2024-01-07T05:11:11.037Z,1.60
2024-01-07T05:14:33.865Z,1.50
2024-01-07T05:17:55.222Z,1.40
2024-01-07T05:21:17.065Z,1.50
2024-01-07T05:24:39.646Z,1.60
2024-01-07T05:28:01.321Z,1.70
2024-01-07T05:31:24.132Z,1.70
2024-01-07T05:34:45.386Z,1.60
2024-01-07T05:38:06.708Z,1.60
2024-01-07T05:41:28.054Z,1.50
2024-01-07T05:44:49.480Z,1.60
2024-01-07T05:48:12.328Z,1.60
2024-01-07T05:51:34.356Z,1.50
2024-01-07T05:54:55.774Z,1.50
2024-01-07T05:58:17.086Z,1.40
2024-01-07T06:01:38.736Z,1.40
2024-01-07T06:05:01.812Z,1.40
2024-01-07T06:08:23.438Z,1.40
2024-01-07T06:11:45.030Z,1.30
2024-01-07T06:15:07.582Z,1.30
2024-01-07T06:18:29.349Z,1.20
2024-01-07T06:21:52.393Z,1.30
2024-01-07T06:25:13.697Z,1.20
2024-01-07T06:28:35.153Z,1.20
2024-01-07T06:31:56.619Z,1.30
2024-01-07T06:35:17.984Z,1.30
2024-01-07T06:38:40.604Z,1.30
2024-01-07T06:42:02.257Z,1.20
2024-01-07T06:45:23.719Z,1.20
2024-01-07T06:48:48.652Z,1.10
2024-01-07T06:52:12.398Z,1.10
2024-01-07T06:55:35.346Z,1.10
2024-01-07T06:58:56.806Z,1.10
2024-01-07T07:02:18.461Z,1.20
2024-01-07T07:05:39.967Z,1.10
2024-01-07T07:09:01.185Z,1.20
2024-01-07T07:12:23.868Z,1.30
2024-01-07T07:15:45.136Z,1.30
2024-01-07T07:19:06.620Z,1.30
2024-01-07T07:22:28.326Z,1.30
2024-01-07T07:25:49.805Z,1.20
2024-01-07T07:29:12.609Z,1.20
2024-01-07T07:32:33.971Z,1.20
2024-01-07T07:35:55.395Z,1.20
2024-01-07T07:39:17.020Z,1.30
2024-01-07T07:42:38.373Z,1.20
2024-01-07T07:46:04.337Z,1.10
2024-01-07T07:49:28.494Z,1.20
2024-01-07T07:52:50.368Z,1.20
2024-01-07T07:56:11.793Z,1.20
2024-01-07T07:59:33.287Z,1.10
2024-01-07T08:02:56.302Z,1.00
2024-01-07T08:06:17.722Z,0.80
2024-01-07T08:09:39.585Z,0.80
2024-01-07T08:13:00.866Z,0.70
2024-01-07T08:16:22.781Z,0.80
2024-01-07T08:19:45.549Z,0.90
2024-01-07T08:23:07.379Z,0.90
2024-01-07T08:26:28.908Z,0.80
2024-01-07T08:29:50.422Z,0.80
2024-01-07T08:33:12.232Z,0.80
2024-01-07T08:36:35.425Z,0.70
2024-01-07T08:39:56.954Z,0.80
2024-01-07T08:43:18.532Z,0.80
2024-01-07T08:46:39.799Z,0.90
2024-01-07T08:50:01.378Z,0.80
2024-01-07T08:53:24.510Z,0.80
2024-01-07T08:56:46.271Z,0.70
2024-01-07T09:00:09.651Z,0.80
2024-01-07T09:03:31.476Z,0.80
2024-01-07T09:06:53.241Z,0.70
2024-01-07T09:10:16.137Z,0.70
2024-01-07T09:13:39.300Z,0.80
2024-01-07T09:17:03.880Z,0.90
2024-01-07T09:20:26.051Z,0.80
2024-01-07T09:23:47.731Z,0.80
2024-01-07T09:27:10.672Z,0.70
2024-01-07T09:30:32.554Z,0.70
2024-01-07T09:33:54.559Z,0.60
2024-01-07T09:37:16.190Z,0.70
2024-01-07T09:40:39.950Z,0.70
2024-01-07T09:44:03.649Z,0.80
2024-01-07T09:47:25.879Z,1.00
2024-01-07T09:50:47.560Z,1.00
2024-01-07T09:54:12.361Z,0.90
2024-01-07T09:57:34.038Z,1.00
2024-01-07T10:00:56.995Z,1.10
2024-01-07T10:04:19.159Z,1.20
2024-01-07T10:07:40.710Z,1.10
2024-01-07T10:11:02.840Z,1.10
2024-01-07T10:14:25.865Z,1.10
2024-01-07T10:17:49.452Z,1.10
2024-01-07T10:21:11.265Z,1.10
2024-01-07T10:24:39.900Z,1.10
2024-01-07T10:28:02.375Z,1.20
2024-01-07T10:31:24.096Z,1.40
2024-01-07T10:34:49.265Z,1.60
2024-01-07T10:38:11.276Z,1.80
2024-01-07T10:41:33.888Z,1.80
2024-01-07T10:44:55.445Z,2.20
2024-01-07T10:48:21.092Z,2.30
2024-01-07T10:51:45.186Z,2.20
2024-01-07T10:55:12.745Z,2.10
2024-01-07T10:58:35.371Z,1.80
2024-01-07T11:02:01.015Z,1.90
2024-01-07T11:05:29.059Z,1.70
2024-01-07T11:08:57.950Z,1.70
2024-01-07T11:12:20.006Z,1.50
2024-01-07T11:15:54.798Z,1.60
2024-01-07T11:19:16.960Z,1.60
2024-01-07T11:22:39.362Z,1.40
2024-01-07T11:26:02.787Z,1.50
2024-01-07T11:29:24.138Z,1.40
2024-01-07T11:32:48.963Z,1.60
2024-01-07T11:36:13.869Z,2.20
2024-01-07T11:39:36.759Z,3.00
2024-01-07T11:42:59.712Z,4.00
2024-01-07T11:46:21.137Z,5.00
2024-01-07T11:49:43.002Z,4.70
2024-01-07T11:53:05.190Z,4.50
2024-01-07T11:56:27.047Z,3.70
2024-01-07T11:59:49.945Z,3.50
2024-01-07T12:03:13.194Z,3.60
2024-01-07T12:06:34.544Z,3.70
2024-01-07T12:09:58.312Z,4.00
2024-01-07T12:13:21.240Z,4.20
2024-01-07T12:16:44.101Z,4.20
2024-01-07T12:20:08.021Z,4.60
2024-01-07T12:23:29.788Z,4.70
2024-01-07T12:26:51.348Z,4.60
2024-01-07T12:30:13.865Z,4.10
2024-01-07T12:33:39.777Z,3.80
2024-01-07T12:37:03.344Z,3.60
2024-01-07T12:40:25.999Z,3.10
2024-01-07T12:43:47.759Z,2.90
2024-01-07T12:47:09.243Z,2.70
2024-01-07T12:50:32.746Z,2.60
2024-01-07T12:53:54.539Z,2.60
2024-01-07T12:57:15.984Z,2.60
2024-01-07T13:00:37.532Z,2.50
2024-01-07T13:04:00.392Z,2.30
2024-01-07T13:07:24.399Z,2.40
2024-01-07T13:10:46.616Z,2.30
2024-01-07T13:14:08.544Z,2.40
2024-01-07T13:17:31.341Z,2.80
2024-01-07T13:20:52.912Z,2.80
2024-01-07T13:24:15.977Z,2.90
2024-01-07T13:27:38.170Z,3.00
2024-01-07T13:31:00.252Z,3.00
2024-01-07T13:34:22.137Z,2.90
2024-01-07T13:37:43.977Z,3.10
2024-01-07T13:41:06.963Z,2.90
2024-01-07T13:44:28.896Z,2.60
2024-01-07T13:47:50.488Z,2.30
2024-01-07T13:51:12.427Z,2.00
2024-01-07T13:54:34.241Z,1.90
2024-01-07T13:57:58.186Z,1.70
2024-01-07T14:01:20.109Z,1.60
2024-01-07T14:04:41.870Z,1.50
2024-01-07T14:08:03.343Z,1.80
2024-01-07T14:11:24.801Z,2.20
2024-01-07T14:14:47.653Z,1.90
2024-01-07T14:18:11.182Z,1.60
2024-01-07T14:21:33.034Z,1.40
2024-01-07T14:24:54.888Z,1.40
2024-01-07T14:28:16.403Z,1.40
2024-01-07T14:31:39.260Z,1.20
2024-01-07T14:35:01.476Z,1.00
2024-01-07T14:38:23.065Z,0.70
2024-01-07T14:41:45.448Z,0.50
2024-01-07T14:45:07.610Z,0.30
2024-01-07T14:48:31.053Z,0.20
2024-01-07T14:51:52.568Z,0.20
2024-01-07T14:55:14.472Z,0.10
2024-01-07T14:58:36.274Z,0.10
2024-01-07T15:01:57.881Z,0.10
2024-01-07T15:05:21.072Z,0.10
2024-01-07T15:08:43.434Z,0.20
2024-01-07T15:12:05.226Z,0.10
2024-01-07T15:15:30.619Z,0.10
2024-01-07T15:18:52.554Z,0.10
2024-01-07T15:22:15.728Z,0.20
2024-01-07T15:25:37.623Z,0.20
2024-01-07T15:28:59.451Z,0.20
2024-01-07T15:32:21.125Z,0.40
2024-01-07T15:35:42.815Z,0.30
2024-01-07T15:39:05.871Z,0.30
2024-01-07T15:42:27.660Z,0.20
2024-01-07T15:45:49.296Z,0.20
2024-01-07T15:49:11.034Z,0.20
2024-01-07T15:52:32.502Z,0.20
2024-01-07T15:55:55.323Z,0.10
2024-01-07T15:59:18.541Z,-0.10
2024-01-07T16:02:39.962Z,-0.40
2024-01-07T16:06:01.586Z,-0.40
2024-01-07T16:09:23.302Z,-0.50
2024-01-07T16:12:46.092Z,-0.50
2024-01-07T16:16:07.834Z,-0.50
2024-01-07T16:19:30.197Z,-0.60
2024-01-07T16:22:51.838Z,-0.70
2024-01-07T16:26:13.153Z,-0.80
2024-01-07T16:29:44.150Z,-0.80
2024-01-07T16:33:09.834Z,-0.80
2024-01-07T16:36:31.728Z,-0.70
2024-01-07T16:39:53.044Z,-0.60
2024-01-07T16:43:14.485Z,-0.50
2024-01-07T16:46:37.788Z,-0.50
2024-01-07T16:53:23.669Z,-0.60
2024-01-07T16:56:45.779Z,-0.60
2024-01-07T17:00:08.944Z,-0.50
2024-01-07T17:03:31.979Z,-0.30
2024-01-07T17:06:53.570Z,-0.40
2024-01-07T17:10:14.947Z,-0.40
2024-01-07T17:13:38.129Z,-0.30
2024-01-07T17:16:59.550Z,-0.30
2024-01-07T17:20:22.544Z,-0.30
2024-01-07T17:23:48.227Z,-0.30
2024-01-07T17:27:09.886Z,-0.20
2024-01-07T17:30:31.294Z,-0.10
2024-01-07T17:33:52.638Z,-0.20
2024-01-07T17:37:15.482Z,-0.20
2024-01-07T17:40:36.819Z,-0.20
2024-01-07T17:43:58.349Z,-0.20
2024-01-07T17:47:19.852Z,-0.10
2024-01-07T17:50:47.295Z,0.00
2024-01-07T17:54:12.948Z,-0.10
2024-01-07T17:57:35.145Z,0.00
2024-01-07T18:00:58.757Z,0.00
2024-01-07T18:04:20.224Z,-0.10
2024-01-07T18:07:41.757Z,0.00
2024-01-07T18:11:06.724Z,0.00
2024-01-07T18:14:28.699Z,0.00
2024-01-07T18:17:50.596Z,0.00
2024-01-07T18:21:15.966Z,0.20
2024-01-07T18:24:37.835Z,0.20
2024-01-07T18:28:00.525Z,0.00
2024-01-07T18:31:21.960Z,0.10
2024-01-07T18:34:45.005Z,0.00
2024-01-07T18:38:08.612Z,0.00
2024-01-07T18:41:30.433Z,0.00
2024-01-07T18:44:53.371Z,-0.10
2024-01-07T18:48:16.471Z,-0.10
2024-01-07T18:51:41.845Z,-0.10
2024-01-07T18:55:03.624Z,-0.10
2024-01-07T18:58:25.287Z,-0.10
2024-01-07T19:01:48.164Z,-0.10
2024-01-07T19:05:10.593Z,-0.10
2024-01-07T19:08:32.555Z,-0.10
2024-01-07T19:11:54.214Z,0.00
2024-01-07T19:15:16.071Z,0.00
2024-01-07T19:18:38.937Z,0.00
2024-01-07T19:22:00.700Z,0.00
2024-01-07T19:25:22.014Z,0.10
2024-01-07T19:28:43.755Z,0.00
2024-01-07T19:32:06.460Z,0.00
2024-01-07T19:35:31.013Z,-0.10
2024-01-07T19:38:53.747Z,-0.20
2024-01-07T19:42:15.788Z,-0.20
2024-01-07T19:45:38.740Z,-0.20
2024-01-07T19:49:03.259Z,-0.20
2024-01-07T19:52:26.178Z,-0.20
2024-01-07T19:55:48.727Z,-0.20
2024-01-07T19:59:10.438Z,-0.20
2024-01-07T20:02:32.314Z,-0.20
2024-01-07T20:05:53.869Z,-0.20
2024-01-07T20:09:16.916Z,-0.30
2024-01-07T20:12:38.446Z,-0.30
2024-01-07T20:16:01.898Z,-0.30
2024-01-07T20:19:23.467Z,-0.30
2024-01-07T20:22:44.926Z,-0.40
2024-01-07T20:26:07.682Z,-0.20
2024-01-07T20:29:29.321Z,-0.20
2024-01-07T20:32:50.822Z,-0.20
2024-01-07T20:36:13.285Z,0.00
2024-01-07T20:39:36.608Z,-0.10
2024-01-07T20:43:00.003Z,-0.20
2024-01-07T20:46:22.250Z,-0.10
2024-01-07T20:49:44.028Z,-0.10
2024-01-07T20:53:05.820Z,-0.30
2024-01-07T20:56:27.581Z,-0.30
2024-01-07T20:59:50.764Z,-0.20
2024-01-07T21:03:12.357Z,-0.20
2024-01-07T21:06:33.888Z,-0.30
2024-01-07T21:09:55.250Z,-0.20
2024-01-07T21:13:16.914Z,-0.20
2024-01-07T21:16:39.539Z,-0.20
2024-01-07T21:20:01.377Z,-0.20
2024-01-07T21:23:23.128Z,-0.10
2024-01-07T21:26:44.533Z,-0.30
2024-01-07T21:30:07.120Z,-0.30
2024-01-07T21:33:29.918Z,-0.40
2024-01-07T21:36:52.302Z,-0.40
2024-01-07T21:40:13.917Z,-0.40
2024-01-07T21:43:35.460Z,-0.40
2024-01-07T21:46:56.902Z,-0.40
2024-01-07T21:50:19.813Z,-0.30
2024-01-07T21:53:41.744Z,-0.30
2024-01-07T21:57:03.919Z,-0.30
2024-01-07T22:00:25.921Z,-0.20
2024-01-07T22:03:47.307Z,-0.10
2024-01-07T22:07:10.284Z,0.00
2024-01-07T22:10:32.912Z,0.00
2024-01-07T22:13:54.264Z,0.00
2024-01-07T22:17:17.498Z,0.00
2024-01-07T22:20:39.966Z,0.10
2024-01-07T22:24:03.516Z,0.10
2024-01-07T22:27:25.041Z,0.10
2024-01-07T22:30:46.726Z,0.20
2024-01-07T22:34:10.995Z,0.10
2024-01-07T22:37:32.708Z,0.20
2024-01-07T22:40:55.469Z,0.20
2024-01-07T22:44:17.155Z,0.20
2024-01-07T22:47:39.295Z,0.30
2024-01-07T22:51:00.902Z,0.20
2024-01-07T22:54:22.568Z,0.30
2024-01-07T22:57:46.359Z,0.20
2024-01-07T23:01:07.878Z,0.30
2024-01-07T23:04:29.897Z,0.40
2024-01-07T23:07:51.312Z,0.30
2024-01-07T23:11:12.791Z,0.30
2024-01-07T23:14:35.643Z,0.30
2024-01-07T23:17:57.422Z,0.40
2024-01-07T23:21:20.532Z,0.30
2024-01-07T23:24:42.207Z,0.40
2024-01-07T23:28:04.104Z,0.50
2024-01-07T23:31:26.960Z,0.40
2024-01-07T23:34:49.031Z,0.40
2024-01-07T23:38:10.308Z,0.50
2024-01-07T23:41:32.059Z,0.50
2024-01-07T23:44:53.873Z,0.40
2024-01-07T23:48:16.662Z,0.40
2024-01-07T23:51:38.548Z,0.40
2024-01-07T23:55:00.623Z,0.30
2024-01-07T23:58:22.005Z,0.40
